Airfield :







YOU CAN JOIN US ON...

 
LOGIN :

Register | Disclaimer

   EN    FR    IT 

 









Legend :    VFR   Marginal VFR   IFR   Intensive IFR   Very Intensive IFR
Visi :
Ceiling :
>= 8 km
>= 3000ft
5 to 8 km
1000 to 3000 ft
1500m to 5 km
500 to 1000 ft
800 to 1500m
200 to 500 ft
< 800m
< 200 ft
Symbols :   Thunderstorms  Fog  Heavy snow  Heavy precipitations  Wind > 20 kt






- Airport Elevation : 1166 ft


KMPV - Edward F Knapp State

CURRENT METAR :
  • 180251Z AUTO 00000KT 10SM CLR M21/M23 A3064 RMK AO2 SLP413 T12061233 50001

EXPIRED METARs :
  • 180151Z AUTO 00000KT 10SM CLR M23/M24 A3064 RMK AO2 SLP418 T12281244
  • 180051Z AUTO 00000KT 10SM CLR M22/M24 A3064 RMK AO2 SLP413 T12171239

TAF KMPV
Valid from the 18 at 00:00 until the 19 at 00:00 UTC


172324Z 1800/1824 32005KT P6SM FEW250
FM181600 14005KT P6SM VCSH OVC080
FM182100 15007KT 1 1/2SM -SN BR OVC050



MET'MAP, your aeronautical weather chart ! - Copyright ORBIFLY December 2007 - Disclaimer

ORBIFLY MET'MAP TEAM :

Programming & Development : Alexandra Zaïnal
Concept & original design : Baudouin d'Aumeries
Assistance for programming : Marc-Olivier Méhu
Technical & hardware support : Manuel Goepfert

Contact : metmap@orbifly.com




SOURCES & CREDITS :

   NOAA